Time;durP1;ratioP1;P1;durP2;ratioP2;P2;SDS_P1;SDS_P2;PMS_P1;PMS_P2;Temp;Humidity;BMP_temperature;BMP_pressure;BME280_temperature;BME280_humidity;BME280_pressure;Samples;Min_cycle;Max_cycle;Signal;HPM_P1;HPM_P2
2021/07/30 00:01:21;;;;;;;0.20;0.20;;;;;;;;;;5014778;28;20489;-74
2021/07/30 00:03:47;;;;;;;0.22;0.22;;;;;;;;;;5015223;28;20029;-74
2021/07/30 00:06:14;;;;;;;0.17;0.17;;;;;;;;;;5014241;28;20046;-74
2021/07/30 00:08:40;;;;;;;0.30;0.30;;;;;;;;;;5014350;28;20409;-75
2021/07/30 00:11:07;;;;;;;0.17;0.17;;;;;;;;;;5014970;28;20053;-74
2021/07/30 00:13:33;;;;;;;0.20;0.20;;;;;;;;;;5014535;28;20084;-74
2021/07/30 00:15:59;;;;;;;0.10;0.10;;;;;;;;;;5014299;28;20560;-74
2021/07/30 00:18:26;;;;;;;0.15;0.15;;;;;;;;;;5014271;28;20069;-74
2021/07/30 00:20:52;;;;;;;0.10;0.10;;;;;;;;;;5014393;28;20115;-74
2021/07/30 00:23:18;;;;;;;0.10;0.10;;;;;;;;;;5014805;28;20042;-74
2021/07/30 00:25:44;;;;;;;0.20;0.20;;;;;;;;;;5014207;28;20076;-74
2021/07/30 00:28:10;;;;;;;0.22;0.22;;;;;;;;;;5014192;28;20049;-74
2021/07/30 00:30:36;;;;;;;0.25;0.25;;;;;;;;;;5015038;28;20046;-74
2021/07/30 00:33:02;;;;;;;0.90;0.28;;;;;;;;;;5014408;28;20169;-74
2021/07/30 00:35:28;;;;;;;0.32;0.32;;;;;;;;;;5014370;28;20058;-74
2021/07/30 00:37:55;;;;;;;0.55;0.55;;;;;;;;;;5014384;28;20045;-74
2021/07/30 00:40:21;;;;;;;0.25;0.25;;;;;;;;;;5014094;28;20037;-75
2021/07/30 00:42:53;;;;;;;0.47;0.47;;;;;;;;;;5014363;28;20165;-74
2021/07/30 00:45:20;;;;;;;0.20;0.20;;;;;;;;;;5014605;28;20073;-74
2021/07/30 00:47:47;;;;;;;0.30;0.30;;;;;;;;;;5014348;28;20042;-74
2021/07/30 00:50:13;;;;;;;0.47;0.47;;;;;;;;;;5014623;28;20046;-74
2021/07/30 00:52:40;;;;;;;0.20;0.20;;;;;;;;;;5014323;28;20045;-74
2021/07/30 00:55:07;;;;;;;0.22;0.22;;;;;;;;;;5014208;28;20141;-74
2021/07/30 00:57:33;;;;;;;0.40;0.40;;;;;;;;;;5014519;28;20045;-74
2021/07/30 01:00:00;;;;;;;0.70;0.50;;;;;;;;;;5014643;28;20050;-74
2021/07/30 01:02:26;;;;;;;0.20;0.20;;;;;;;;;;5017469;28;20029;-74
2021/07/30 01:04:52;;;;;;;0.10;0.10;;;;;;;;;;5017904;28;20096;-74
2021/07/30 01:07:18;;;;;;;0.13;0.13;;;;;;;;;;5017635;28;20030;-74
2021/07/30 01:09:44;;;;;;;0.13;0.13;;;;;;;;;;5018265;28;20045;-74
2021/07/30 01:12:11;;;;;;;0.20;0.20;;;;;;;;;;5018425;28;20037;-74
2021/07/30 01:14:37;;;;;;;0.20;0.20;;;;;;;;;;5017779;28;20049;-74
2021/07/30 01:17:04;;;;;;;0.40;0.40;;;;;;;;;;5017521;28;20418;-74
2021/07/30 01:19:30;;;;;;;0.10;0.10;;;;;;;;;;5017332;28;20401;-75
2021/07/30 01:21:56;;;;;;;0.73;0.63;;;;;;;;;;5017389;28;20128;-74
2021/07/30 01:24:25;;;;;;;0.20;0.20;;;;;;;;;;5017621;28;20511;-74
2021/07/30 01:26:52;;;;;;;0.20;0.20;;;;;;;;;;5017587;28;20048;-74
2021/07/30 01:29:18;;;;;;;0.30;0.30;;;;;;;;;;5017533;28;20061;-74
2021/07/30 01:31:44;;;;;;;0.30;0.30;;;;;;;;;;5017149;28;20066;-74
2021/07/30 01:34:10;;;;;;;0.20;0.20;;;;;;;;;;5017098;28;20053;-74
2021/07/30 01:36:36;;;;;;;0.10;0.10;;;;;;;;;;5017095;28;20030;-75
2021/07/30 01:39:02;;;;;;;0.10;0.10;;;;;;;;;;5017357;28;20045;-74
2021/07/30 01:41:29;;;;;;;1.02;0.52;;;;;;;;;;5017336;28;20038;-74
2021/07/30 01:43:55;;;;;;;0.10;0.10;;;;;;;;;;5017562;28;20038;-74
2021/07/30 01:46:21;;;;;;;0.25;0.25;;;;;;;;;;5016955;28;20044;-74
2021/07/30 01:48:48;;;;;;;0.17;0.17;;;;;;;;;;5016911;28;20045;-74
2021/07/30 01:51:14;;;;;;;0.40;0.40;;;;;;;;;;5016810;28;20120;-74
2021/07/30 01:53:40;;;;;;;0.22;0.22;;;;;;;;;;5017034;28;20042;-74
2021/07/30 01:56:07;;;;;;;0.20;0.20;;;;;;;;;;5016977;28;20450;-74
2021/07/30 01:58:35;;;;;;;0.20;0.20;;;;;;;;;;5016665;28;20061;-74
2021/07/30 02:01:02;;;;;;;0.15;0.15;;;;;;;;;;5016394;28;20049;-74
2021/07/30 02:03:28;;;;;;;0.22;0.22;;;;;;;;;;5016393;28;20065;-75
2021/07/30 02:05:54;;;;;;;0.30;0.30;;;;;;;;;;5016115;28;20042;-74
2021/07/30 02:08:20;;;;;;;0.25;0.25;;;;;;;;;;5016223;28;20117;-74
2021/07/30 02:10:46;;;;;;;0.20;0.20;;;;;;;;;;5016539;28;20049;-74
2021/07/30 02:15:57;;;;;;;0.20;0.20;;;;;;;;;;5015798;28;20068;-74
2021/07/30 02:18:23;;;;;;;0.20;0.20;;;;;;;;;;5016367;28;20037;-74
2021/07/30 02:20:49;;;;;;;0.25;0.25;;;;;;;;;;5016351;28;20072;-74
2021/07/30 02:23:15;;;;;;;0.38;0.20;;;;;;;;;;5016738;28;20033;-74
2021/07/30 02:25:42;;;;;;;1.10;0.30;;;;;;;;;;5016232;28;20041;-74
2021/07/30 02:28:08;;;;;;;0.30;0.30;;;;;;;;;;5016112;28;20057;-74
2021/07/30 02:30:34;;;;;;;0.30;0.30;;;;;;;;;;5016151;28;20085;-74
2021/07/30 02:33:00;;;;;;;0.20;0.20;;;;;;;;;;5016115;28;20087;-75
2021/07/30 02:35:26;;;;;;;0.30;0.30;;;;;;;;;;5016006;28;20488;-74
2021/07/30 02:37:52;;;;;;;0.30;0.30;;;;;;;;;;5016599;28;20038;-74
2021/07/30 02:40:18;;;;;;;0.20;0.20;;;;;;;;;;5016359;28;20117;-74
2021/07/30 02:42:44;;;;;;;0.28;0.28;;;;;;;;;;5016422;28;20136;-74
2021/07/30 02:45:11;;;;;;;0.30;0.30;;;;;;;;;;5016395;28;20111;-74
2021/07/30 02:47:37;;;;;;;0.57;0.57;;;;;;;;;;5015936;28;20037;-74
2021/07/30 02:50:04;;;;;;;0.20;0.20;;;;;;;;;;5015860;28;20100;-75
2021/07/30 02:52:30;;;;;;;0.45;0.45;;;;;;;;;;5015727;28;20373;-74
2021/07/30 02:54:56;;;;;;;0.30;0.30;;;;;;;;;;5015870;28;20057;-75
2021/07/30 02:57:22;;;;;;;1.20;0.60;;;;;;;;;;5015961;28;20069;-75
2021/07/30 02:59:48;;;;;;;0.20;0.20;;;;;;;;;;5015989;28;20057;-74
2021/07/30 03:02:15;;;;;;;0.20;0.20;;;;;;;;;;5015984;28;20121;-74
2021/07/30 03:04:41;;;;;;;0.20;0.20;;;;;;;;;;5016064;28;20045;-74
2021/07/30 03:07:07;;;;;;;0.30;0.30;;;;;;;;;;5015795;28;20041;-75
2021/07/30 03:09:33;;;;;;;0.63;0.30;;;;;;;;;;5016341;28;20045;-75
2021/07/30 03:11:59;;;;;;;0.45;0.45;;;;;;;;;;5015426;28;20071;-75
2021/07/30 03:14:25;;;;;;;0.80;0.45;;;;;;;;;;5015310;28;20555;-74
2021/07/30 03:16:51;;;;;;;0.47;0.47;;;;;;;;;;5015356;28;20042;-74
2021/07/30 03:19:17;;;;;;;0.30;0.30;;;;;;;;;;5015120;28;20038;-74
2021/07/30 03:21:43;;;;;;;0.20;0.20;;;;;;;;;;5015732;28;20125;-74
2021/07/30 03:24:09;;;;;;;0.10;0.10;;;;;;;;;;5014946;28;20132;-74
2021/07/30 03:26:36;;;;;;;0.10;0.10;;;;;;;;;;5015652;28;20125;-73
2021/07/30 03:29:04;;;;;;;0.10;0.10;;;;;;;;;;5015099;28;20496;-73
2021/07/30 03:31:30;;;;;;;0.30;0.30;;;;;;;;;;5015374;28;20057;-73
2021/07/30 03:33:56;;;;;;;0.30;0.30;;;;;;;;;;5015179;28;20141;-73
2021/07/30 03:36:22;;;;;;;0.10;0.10;;;;;;;;;;5014898;28;20123;-73
2021/07/30 03:38:48;;;;;;;0.10;0.10;;;;;;;;;;5015252;28;20037;-73
2021/07/30 03:41:14;;;;;;;0.35;0.22;;;;;;;;;;5015585;28;20064;-73
2021/07/30 03:43:41;;;;;;;0.20;0.20;;;;;;;;;;5014957;28;20095;-73
2021/07/30 03:46:07;;;;;;;1.27;0.30;;;;;;;;;;5015743;28;20042;-73
2021/07/30 03:48:33;;;;;;;0.20;0.20;;;;;;;;;;5015182;28;20045;-73
2021/07/30 03:50:59;;;;;;;0.20;0.20;;;;;;;;;;5014869;28;20041;-73
2021/07/30 03:53:25;;;;;;;0.20;0.20;;;;;;;;;;5015136;28;20522;-73
2021/07/30 03:55:51;;;;;;;0.47;0.47;;;;;;;;;;5015008;28;20042;-76
2021/07/30 03:58:17;;;;;;;0.70;0.57;;;;;;;;;;5014864;28;20045;-75
2021/07/30 04:00:43;;;;;;;0.28;0.28;;;;;;;;;;5015371;28;20084;-75
2021/07/30 04:03:09;;;;;;;0.10;0.10;;;;;;;;;;5015007;28;20073;-76
2021/07/30 04:05:36;;;;;;;0.10;0.10;;;;;;;;;;5014564;28;20045;-73
2021/07/30 04:08:04;;;;;;;0.25;0.25;;;;;;;;;;5015734;28;20065;-76
2021/07/30 04:10:30;;;;;;;0.17;0.17;;;;;;;;;;5014656;28;20073;-75
2021/07/30 04:12:56;;;;;;;0.30;0.30;;;;;;;;;;5014837;28;20046;-74
2021/07/30 04:15:22;;;;;;;0.20;0.20;;;;;;;;;;5014788;28;20069;-75
2021/07/30 04:17:49;;;;;;;0.20;0.20;;;;;;;;;;5014807;28;20038;-76
2021/07/30 04:20:15;;;;;;;0.20;0.20;;;;;;;;;;5015007;28;20120;-75
2021/07/30 04:22:41;;;;;;;0.20;0.20;;;;;;;;;;5014844;28;20046;-75
2021/07/30 04:25:08;;;;;;;0.32;0.15;;;;;;;;;;5015343;28;20049;-75
2021/07/30 04:27:34;;;;;;;0.22;0.22;;;;;;;;;;5014813;28;20044;-75
2021/07/30 04:30:00;;;;;;;0.13;0.13;;;;;;;;;;5015323;28;20046;-75
2021/07/30 04:32:26;;;;;;;0.20;0.20;;;;;;;;;;5014690;28;20042;-75
2021/07/30 04:34:52;;;;;;;0.22;0.22;;;;;;;;;;5014524;28;20046;-75
2021/07/30 04:37:18;;;;;;;0.25;0.25;;;;;;;;;;5017519;28;20046;-75
2021/07/30 04:39:44;;;;;;;0.17;0.17;;;;;;;;;;5018842;28;20046;-75
2021/07/30 04:42:11;;;;;;;0.85;0.52;;;;;;;;;;5018961;28;20561;-75
2021/07/30 04:44:37;;;;;;;0.43;0.30;;;;;;;;;;5018172;28;20042;-75
2021/07/30 04:47:03;;;;;;;0.32;0.20;;;;;;;;;;5018339;28;20038;-75
2021/07/30 04:49:29;;;;;;;0.10;0.10;;;;;;;;;;5018483;28;20042;-75
2021/07/30 04:51:55;;;;;;;0.15;0.15;;;;;;;;;;5018250;28;20042;-75
2021/07/30 04:54:21;;;;;;;0.28;0.28;;;;;;;;;;5017904;28;20046;-75
2021/07/30 04:56:47;;;;;;;0.45;0.30;;;;;;;;;;5017853;28;20041;-75
2021/07/30 04:59:13;;;;;;;0.10;0.10;;;;;;;;;;5018188;28;20156;-75
2021/07/30 05:01:42;;;;;;;0.25;0.25;;;;;;;;;;5017915;28;20072;-75
2021/07/30 05:04:10;;;;;;;0.20;0.20;;;;;;;;;;5017836;28;20069;-75
2021/07/30 05:06:36;;;;;;;0.20;0.20;;;;;;;;;;5017968;28;20049;-75
2021/07/30 05:09:02;;;;;;;0.20;0.20;;;;;;;;;;5017613;28;20053;-75
2021/07/30 05:11:28;;;;;;;0.40;0.40;;;;;;;;;;5017340;28;20037;-75
2021/07/30 05:13:55;;;;;;;0.20;0.20;;;;;;;;;;5018072;28;20111;-75
2021/07/30 05:16:21;;;;;;;0.10;0.10;;;;;;;;;;5018046;28;20042;-75
2021/07/30 05:18:47;;;;;;;0.20;0.20;;;;;;;;;;5017516;28;20381;-75
2021/07/30 05:21:13;;;;;;;0.32;0.32;;;;;;;;;;5017589;28;20037;-75
2021/07/30 05:23:40;;;;;;;0.30;0.30;;;;;;;;;;5017986;28;20055;-75
2021/07/30 05:26:06;;;;;;;0.20;0.20;;;;;;;;;;5017860;28;20576;-75
2021/07/30 05:28:34;;;;;;;0.30;0.30;;;;;;;;;;5017551;28;20076;-75
2021/07/30 05:31:00;;;;;;;0.40;0.40;;;;;;;;;;5016997;28;20038;-75
2021/07/30 05:33:27;;;;;;;0.20;0.20;;;;;;;;;;5017005;28;20172;-75
2021/07/30 05:35:54;;;;;;;0.63;0.57;;;;;;;;;;5017137;28;20045;-75
2021/07/30 05:38:20;;;;;;;0.40;0.40;;;;;;;;;;5017444;28;20042;-75
2021/07/30 05:40:47;;;;;;;0.55;0.55;;;;;;;;;;5017703;28;20041;-75
2021/07/30 05:43:13;;;;;;;0.20;0.20;;;;;;;;;;5017171;28;20153;-75
2021/07/30 05:45:39;;;;;;;0.20;0.20;;;;;;;;;;5017288;28;20099;-75
2021/07/30 05:48:07;;;;;;;0.80;0.47;;;;;;;;;;5017097;28;20046;-75
2021/07/30 05:50:33;;;;;;;0.73;0.52;;;;;;;;;;5017042;28;20516;-75
2021/07/30 05:52:59;;;;;;;0.63;0.40;;;;;;;;;;5017467;28;20070;-76
2021/07/30 05:55:25;;;;;;;0.20;0.20;;;;;;;;;;5017050;28;20042;-75
2021/07/30 05:57:51;;;;;;;0.30;0.30;;;;;;;;;;5016784;28;20045;-75
2021/07/30 06:00:17;;;;;;;0.10;0.10;;;;;;;;;;5017557;28;20048;-75
2021/07/30 06:02:43;;;;;;;0.40;0.40;;;;;;;;;;5017255;28;20175;-75
2021/07/30 06:05:09;;;;;;;0.20;0.20;;;;;;;;;;5016788;28;20107;-76
2021/07/30 06:07:36;;;;;;;0.10;0.10;;;;;;;;;;5016521;28;20045;-75
2021/07/30 06:10:02;;;;;;;0.43;0.43;;;;;;;;;;5017461;28;20092;-75
2021/07/30 06:12:29;;;;;;;0.20;0.20;;;;;;;;;;5016192;28;20433;-76
2021/07/30 06:14:55;;;;;;;0.30;0.30;;;;;;;;;;5016358;28;20073;-75
2021/07/30 06:17:21;;;;;;;0.22;0.22;;;;;;;;;;5016403;28;20069;-76
2021/07/30 06:19:47;;;;;;;0.20;0.20;;;;;;;;;;5016011;28;20041;-75
2021/07/30 06:22:14;;;;;;;0.20;0.20;;;;;;;;;;5016347;28;20049;-76
2021/07/30 06:24:40;;;;;;;0.22;0.22;;;;;;;;;;5016019;28;20038;-76
2021/07/30 06:27:07;;;;;;;0.25;0.25;;;;;;;;;;5016225;28;20034;-75
2021/07/30 06:29:33;;;;;;;0.30;0.30;;;;;;;;;;5015915;28;20038;-75
2021/07/30 06:31:59;;;;;;;0.20;0.20;;;;;;;;;;5016152;28;20045;-76
2021/07/30 06:34:25;;;;;;;0.17;0.17;;;;;;;;;;5016264;28;20058;-76
2021/07/30 06:36:55;;;;;;;0.20;0.20;;;;;;;;;;5016627;28;20038;-76
2021/07/30 06:39:22;;;;;;;0.20;0.20;;;;;;;;;;5015746;28;20042;-76
2021/07/30 06:41:48;;;;;;;7.10;1.13;;;;;;;;;;5016496;28;20048;-76
2021/07/30 06:44:14;;;;;;;0.20;0.20;;;;;;;;;;5016121;28;20045;-76
2021/07/30 06:46:40;;;;;;;0.30;0.30;;;;;;;;;;5016122;28;20037;-76
2021/07/30 06:49:06;;;;;;;0.20;0.20;;;;;;;;;;5015947;28;20047;-76
2021/07/30 06:51:32;;;;;;;0.40;0.40;;;;;;;;;;5016710;28;20493;-76
2021/07/30 06:53:59;;;;;;;0.20;0.20;;;;;;;;;;5016242;28;20091;-75
2021/07/30 06:56:25;;;;;;;0.20;0.20;;;;;;;;;;5016494;28;20048;-75
2021/07/30 06:58:51;;;;;;;0.43;0.43;;;;;;;;;;5015366;28;20034;-76
2021/07/30 07:01:17;;;;;;;0.30;0.30;;;;;;;;;;5016250;28;20046;-76
2021/07/30 07:03:43;;;;;;;1.35;0.40;;;;;;;;;;5016429;28;20045;-75
2021/07/30 07:06:14;;;;;;;0.20;0.20;;;;;;;;;;5015348;28;20066;-75
2021/07/30 07:08:40;;;;;;;0.13;0.13;;;;;;;;;;5015442;28;20034;-75
2021/07/30 07:11:06;;;;;;;0.35;0.35;;;;;;;;;;5016295;28;20072;-76
2021/07/30 07:13:32;;;;;;;0.45;0.45;;;;;;;;;;5015702;28;20048;-75
2021/07/30 07:15:58;;;;;;;2.17;0.82;;;;;;;;;;5015298;28;20080;-76
2021/07/30 07:18:24;;;;;;;0.35;0.35;;;;;;;;;;5016163;28;20123;-75
2021/07/30 07:20:56;;;;;;;0.35;0.35;;;;;;;;;;5015539;28;20088;-75
2021/07/30 07:23:22;;;;;;;0.20;0.20;;;;;;;;;;5015261;28;20038;-75
2021/07/30 07:25:48;;;;;;;0.57;0.57;;;;;;;;;;5015536;28;20071;-75
2021/07/30 07:28:14;;;;;;;0.30;0.30;;;;;;;;;;5015497;28;20046;-75
2021/07/30 07:30:40;;;;;;;0.40;0.40;;;;;;;;;;5015772;28;20477;-75
2021/07/30 07:33:06;;;;;;;0.52;0.52;;;;;;;;;;5015139;28;20065;-75
2021/07/30 07:35:32;;;;;;;0.30;0.30;;;;;;;;;;5014779;28;20054;-75
2021/07/30 07:38:05;;;;;;;0.30;0.30;;;;;;;;;;5014708;28;20034;-75
2021/07/30 07:40:31;;;;;;;0.45;0.45;;;;;;;;;;5015334;28;20038;-76
2021/07/30 07:42:58;;;;;;;1.10;0.82;;;;;;;;;;5014962;28;20038;-75
2021/07/30 07:45:24;;;;;;;0.30;0.30;;;;;;;;;;5014869;28;20037;-76
2021/07/30 07:47:51;;;;;;;0.32;0.30;;;;;;;;;;5015495;28;20037;-75
2021/07/30 07:50:17;;;;;;;0.20;0.20;;;;;;;;;;5014502;28;20049;-75
2021/07/30 07:52:43;;;;;;;0.22;0.22;;;;;;;;;;5015126;28;20040;-75
2021/07/30 07:55:10;;;;;;;0.10;0.10;;;;;;;;;;5014761;28;20050;-75
2021/07/30 07:57:36;;;;;;;0.10;0.10;;;;;;;;;;5014728;28;20116;-76
2021/07/30 08:00:02;;;;;;;0.35;0.30;;;;;;;;;;5015095;28;20478;-75
2021/07/30 08:02:28;;;;;;;0.20;0.20;;;;;;;;;;5015023;28;20096;-75
2021/07/30 08:04:54;;;;;;;0.30;0.30;;;;;;;;;;5014290;28;20540;-75
2021/07/30 08:07:20;;;;;;;0.50;0.50;;;;;;;;;;5014693;28;20041;-75
2021/07/30 08:09:46;;;;;;;0.30;0.30;;;;;;;;;;5014418;28;20104;-75
2021/07/30 08:12:13;;;;;;;0.30;0.17;;;;;;;;;;5017579;28;20072;-75
2021/07/30 08:14:39;;;;;;;0.20;0.20;;;;;;;;;;5018406;28;20136;-75
2021/07/30 08:17:06;;;;;;;0.10;0.10;;;;;;;;;;5018669;28;20041;-76
2021/07/30 08:19:35;;;;;;;0.20;0.20;;;;;;;;;;5018749;28;20041;-75
2021/07/30 08:22:04;;;;;;;0.20;0.20;;;;;;;;;;5018234;28;20084;-75
2021/07/30 08:24:30;;;;;;;0.32;0.32;;;;;;;;;;5018918;28;20080;-75
2021/07/30 08:26:56;;;;;;;0.28;0.28;;;;;;;;;;5019278;28;20112;-75
2021/07/30 08:29:23;;;;;;;0.30;0.30;;;;;;;;;;5018161;28;20038;-76
2021/07/30 08:31:49;;;;;;;0.57;0.57;;;;;;;;;;5018387;28;20065;-75
2021/07/30 08:34:16;;;;;;;0.40;0.40;;;;;;;;;;5018105;28;20141;-75
2021/07/30 08:36:42;;;;;;;0.32;0.32;;;;;;;;;;5019274;28;20048;-75
2021/07/30 08:39:09;;;;;;;0.30;0.30;;;;;;;;;;5018183;28;20041;-75
2021/07/30 08:41:35;;;;;;;0.40;0.40;;;;;;;;;;5017868;28;20107;-76
2021/07/30 08:44:02;;;;;;;5.47;0.85;;;;;;;;;;5017838;28;20040;-76
2021/07/30 08:46:30;;;;;;;1.95;0.55;;;;;;;;;;5018003;28;20040;-75
2021/07/30 08:48:56;;;;;;;0.45;0.45;;;;;;;;;;5018818;28;20076;-75
2021/07/30 08:51:25;;;;;;;0.40;0.28;;;;;;;;;;5017657;28;20041;-75
2021/07/30 08:53:51;;;;;;;0.30;0.30;;;;;;;;;;5017988;28;20504;-75
2021/07/30 08:56:18;;;;;;;0.60;0.60;;;;;;;;;;5017670;28;20049;-75
2021/07/30 08:58:44;;;;;;;0.95;0.95;;;;;;;;;;5018389;28;20045;-75
2021/07/30 09:01:11;;;;;;;0.50;0.35;;;;;;;;;;5018398;28;20046;-76
2021/07/30 09:03:39;;;;;;;0.50;0.50;;;;;;;;;;5017775;28;20037;-75
2021/07/30 09:06:12;;;;;;;0.30;0.30;;;;;;;;;;5017314;28;20061;-76
2021/07/30 09:08:38;;;;;;;0.30;0.30;;;;;;;;;;5017381;28;20081;-75
2021/07/30 09:11:04;;;;;;;0.40;0.40;;;;;;;;;;5017992;28;20494;-75
2021/07/30 09:13:32;;;;;;;0.40;0.40;;;;;;;;;;5017626;28;20080;-75
2021/07/30 09:16:02;;;;;;;0.73;0.73;;;;;;;;;;5017999;28;20041;-75
2021/07/30 09:18:28;;;;;;;0.95;0.52;;;;;;;;;;5017189;28;20501;-75
2021/07/30 09:20:55;;;;;;;0.30;0.30;;;;;;;;;;5017346;28;20520;-75
2021/07/30 09:23:22;;;;;;;0.70;0.70;;;;;;;;;;5016918;28;20504;-75
2021/07/30 09:25:48;;;;;;;0.43;0.43;;;;;;;;;;5017040;28;20128;-75
2021/07/30 09:28:14;;;;;;;0.40;0.40;;;;;;;;;;5017003;28;20042;-75
2021/07/30 09:30:40;;;;;;;0.30;0.30;;;;;;;;;;5016806;28;20327;-75
2021/07/30 09:33:06;;;;;;;0.68;0.65;;;;;;;;;;5017115;28;20038;-75
2021/07/30 09:35:52;;;;;;;0.25;0.25;;;;;;;;;;5017172;28;20050;-75
2021/07/30 09:38:20;;;;;;;0.38;0.38;;;;;;;;;;5017693;28;20037;-75
2021/07/30 09:40:46;;;;;;;11.93;1.67;;;;;;;;;;5017794;28;20064;-75
2021/07/30 09:43:22;;;;;;;0.30;0.30;;;;;;;;;;5017400;28;20042;-75
2021/07/30 09:45:48;;;;;;;2.05;1.15;;;;;;;;;;5017317;28;20045;-75
2021/07/30 09:48:14;;;;;;;0.80;0.70;;;;;;;;;;5017286;28;20065;-75
2021/07/30 09:50:40;;;;;;;0.35;0.35;;;;;;;;;;5016919;28;20108;-75
2021/07/30 09:53:07;;;;;;;1.10;0.93;;;;;;;;;;5016930;28;20041;-75
2021/07/30 09:55:35;;;;;;;0.35;0.35;;;;;;;;;;5016780;28;20056;-76
2021/07/30 09:58:02;;;;;;;0.38;0.38;;;;;;;;;;5017647;28;20473;-76
2021/07/30 10:00:31;;;;;;;0.80;0.63;;;;;;;;;;5017011;28;20042;-75
2021/07/30 10:03:01;;;;;;;0.43;0.43;;;;;;;;;;5017739;28;20057;-76
2021/07/30 10:05:28;;;;;;;0.98;0.98;;;;;;;;;;5016845;28;20523;-75
2021/07/30 10:07:54;;;;;;;0.30;0.30;;;;;;;;;;5016922;28;20135;-76
2021/07/30 10:10:28;;;;;;;1.48;0.82;;;;;;;;;;5016625;28;20038;-75
2021/07/30 10:13:00;;;;;;;0.43;0.43;;;;;;;;;;5017356;28;20041;-76
2021/07/30 10:15:26;;;;;;;1.00;1.00;;;;;;;;;;5016681;28;20129;-75
2021/07/30 10:17:55;;;;;;;0.50;0.50;;;;;;;;;;5016659;28;20034;-75
2021/07/30 10:20:23;;;;;;;0.60;0.60;;;;;;;;;;5016232;28;20044;-75
2021/07/30 10:22:55;;;;;;;0.68;0.68;;;;;;;;;;5016542;28;20112;-76
2021/07/30 10:25:22;;;;;;;0.90;0.90;;;;;;;;;;5017101;28;20158;-75
2021/07/30 10:27:49;;;;;;;0.55;0.55;;;;;;;;;;5016460;28;20483;-75
2021/07/30 10:30:16;;;;;;;0.93;0.82;;;;;;;;;;5016572;28;20045;-76
2021/07/30 10:32:48;;;;;;;0.40;0.40;;;;;;;;;;5016120;28;20493;-75
2021/07/30 10:35:15;;;;;;;0.22;0.22;;;;;;;;;;5015016;28;20057;-75
2021/07/30 10:37:47;;;;;;;2.20;1.15;;;;;;;;;;5016214;28;20481;-76
2021/07/30 10:40:14;;;;;;;0.35;0.35;;;;;;;;;;5016320;28;20068;-75
2021/07/30 10:43:01;;;;;;;0.45;0.45;;;;;;;;;;5016433;28;20038;-75
2021/07/30 10:45:27;;;;;;;0.80;0.75;;;;;;;;;;5015850;28;20041;-76
2021/07/30 10:48:13;;;;;;;0.47;0.47;;;;;;;;;;5016613;28;20347;-75
2021/07/30 10:50:56;;;;;;;0.40;0.40;;;;;;;;;;5014520;28;20038;-75
2021/07/30 10:53:32;;;;;;;0.35;0.35;;;;;;;;;;5015224;28;20046;-75
2021/07/30 10:55:59;;;;;;;0.35;0.35;;;;;;;;;;5015425;28;20146;-75
2021/07/30 10:58:40;;;;;;;0.43;0.43;;;;;;;;;;5015400;28;20050;-75
2021/07/30 11:01:10;;;;;;;0.35;0.35;;;;;;;;;;5015968;28;20046;-76
2021/07/30 11:03:51;;;;;;;0.67;0.67;;;;;;;;;;5015910;28;20100;-75
2021/07/30 11:06:21;;;;;;;0.63;0.60;;;;;;;;;;5015076;28;20049;-76
2021/07/30 11:09:03;;;;;;;1.25;0.45;;;;;;;;;;5015463;28;20040;-75
2021/07/30 11:11:35;;;;;;;0.55;0.55;;;;;;;;;;5014895;28;20049;-75
2021/07/30 11:14:01;;;;;;;0.93;0.93;;;;;;;;;;5015302;28;20038;-76
2021/07/30 11:16:27;;;;;;;1.20;0.50;;;;;;;;;;5015437;28;20041;-76
2021/07/30 11:18:53;;;;;;;0.63;0.63;;;;;;;;;;5015581;28;20042;-75
2021/07/30 11:21:26;;;;;;;1.05;0.80;;;;;;;;;;5015183;28;20107;-76
2021/07/30 11:23:52;;;;;;;0.73;0.73;;;;;;;;;;5014970;28;20501;-76
2021/07/30 11:26:20;;;;;;;1.20;1.05;;;;;;;;;;5014956;28;20095;-76
2021/07/30 11:28:58;;;;;;;0.28;0.28;;;;;;;;;;5015096;28;20034;-76
2021/07/30 11:31:24;;;;;;;0.30;0.30;;;;;;;;;;5015560;28;20054;-75
2021/07/30 11:33:51;;;;;;;0.52;0.52;;;;;;;;;;5014648;28;20030;-76
2021/07/30 11:36:17;;;;;;;0.43;0.43;;;;;;;;;;5015202;28;20044;-74
2021/07/30 11:39:09;;;;;;;0.43;0.43;;;;;;;;;;5015617;28;20042;-75
2021/07/30 11:41:35;;;;;;;0.60;0.60;;;;;;;;;;5015587;28;20124;-74
2021/07/30 11:44:08;;;;;;;0.85;0.47;;;;;;;;;;5015234;28;20103;-74
2021/07/30 11:46:35;;;;;;;0.45;0.45;;;;;;;;;;5014748;28;20389;-75
2021/07/30 11:49:01;;;;;;;0.57;0.57;;;;;;;;;;5015039;28;20141;-74
2021/07/30 11:51:28;;;;;;;0.20;0.20;;;;;;;;;;5015682;28;20034;-75
2021/07/30 11:53:54;;;;;;;0.90;0.60;;;;;;;;;;5015363;28;20042;-75
2021/07/30 11:56:21;;;;;;;0.60;0.60;;;;;;;;;;5015052;28;20585;-74
2021/07/30 11:58:57;;;;;;;1.45;0.85;;;;;;;;;;5014790;28;20042;-74
2021/07/30 12:01:23;;;;;;;0.30;0.30;;;;;;;;;;5015667;28;20034;-75
2021/07/30 12:04:08;;;;;;;0.52;0.52;;;;;;;;;;5014744;28;20485;-75
2021/07/30 12:06:42;;;;;;;0.50;0.50;;;;;;;;;;5015209;28;20034;-74
2021/07/30 12:09:09;;;;;;;0.57;0.55;;;;;;;;;;5015284;28;20033;-75
2021/07/30 12:11:36;;;;;;;0.50;0.50;;;;;;;;;;5014026;28;20389;-74
2021/07/30 12:14:02;;;;;;;0.43;0.43;;;;;;;;;;5014865;28;20034;-74
2021/07/30 12:16:28;;;;;;;0.50;0.50;;;;;;;;;;5015493;28;20045;-74
2021/07/30 12:18:55;;;;;;;0.43;0.43;;;;;;;;;;5014832;28;20125;-74
2021/07/30 12:21:21;;;;;;;1.08;0.60;;;;;;;;;;5014474;28;20401;-74
2021/07/30 12:23:47;;;;;;;0.70;0.70;;;;;;;;;;5014813;28;20034;-74
2021/07/30 12:26:29;;;;;;;0.80;0.80;;;;;;;;;;5015096;28;20551;-75
2021/07/30 12:28:55;;;;;;;0.57;0.47;;;;;;;;;;5014831;28;20133;-75
2021/07/30 12:31:21;;;;;;;0.73;0.73;;;;;;;;;;5015106;28;20056;-74
2021/07/30 12:33:48;;;;;;;0.88;0.85;;;;;;;;;;5014498;28;20034;-75
2021/07/30 12:36:15;;;;;;;0.45;0.45;;;;;;;;;;5014028;28;20045;-74
2021/07/30 12:39:01;;;;;;;0.60;0.60;;;;;;;;;;5014687;28;20034;-74
2021/07/30 12:41:30;;;;;;;0.52;0.52;;;;;;;;;;5014949;28;20481;-74
2021/07/30 12:43:56;;;;;;;0.93;0.65;;;;;;;;;;5014609;28;20038;-75
2021/07/30 12:46:32;;;;;;;0.43;0.43;;;;;;;;;;5014282;28;20041;-74
2021/07/30 12:48:58;;;;;;;0.47;0.47;;;;;;;;;;5014575;28;20041;-74
2021/07/30 12:51:25;;;;;;;0.40;0.40;;;;;;;;;;5014519;28;20528;-74
2021/07/30 12:54:07;;;;;;;0.43;0.43;;;;;;;;;;5014358;28;20072;-74
2021/07/30 12:56:52;;;;;;;0.88;0.75;;;;;;;;;;5014747;28;20366;-74
2021/07/30 12:59:18;;;;;;;0.60;0.60;;;;;;;;;;5018798;28;20480;-74
2021/07/30 13:01:44;;;;;;;0.25;0.25;;;;;;;;;;5018161;28;20038;-74
2021/07/30 13:04:12;;;;;;;0.52;0.40;;;;;;;;;;5018217;28;20469;-74
2021/07/30 13:06:39;;;;;;;0.85;0.85;;;;;;;;;;5017952;28;20030;-74
2021/07/30 13:09:06;;;;;;;1.35;1.23;;;;;;;;;;5017987;28;20042;-74
2021/07/30 13:11:32;;;;;;;0.55;0.52;;;;;;;;;;5017825;28;20117;-74
2021/07/30 13:13:58;;;;;;;0.70;0.70;;;;;;;;;;5018311;28;20128;-74
2021/07/30 13:16:24;;;;;;;0.32;0.32;;;;;;;;;;5018392;28;20053;-74
2021/07/30 13:18:50;;;;;;;1.33;0.65;;;;;;;;;;5017914;28;20061;-74
2021/07/30 13:21:16;;;;;;;1.10;0.60;;;;;;;;;;5017716;28;20048;-75
2021/07/30 13:23:42;;;;;;;0.40;0.40;;;;;;;;;;5017499;28;20549;-75
2021/07/30 13:26:09;;;;;;;1.48;0.45;;;;;;;;;;5017716;28;20081;-74
2021/07/30 13:28:35;;;;;;;0.70;0.70;;;;;;;;;;5017614;28;20132;-75
2021/07/30 13:31:01;;;;;;;0.30;0.30;;;;;;;;;;5017946;28;20459;-75
2021/07/30 13:33:27;;;;;;;0.38;0.38;;;;;;;;;;5017494;28;20030;-74
2021/07/30 13:35:53;;;;;;;0.40;0.40;;;;;;;;;;5016876;28;20049;-74
2021/07/30 13:38:19;;;;;;;3.95;0.73;;;;;;;;;;5017995;28;20037;-75
2021/07/30 13:40:48;;;;;;;0.55;0.55;;;;;;;;;;5017695;28;20042;-75
2021/07/30 13:43:14;;;;;;;0.65;0.65;;;;;;;;;;5017826;28;20037;-74
2021/07/30 13:45:42;;;;;;;0.60;0.60;;;;;;;;;;5017508;28;20508;-75
2021/07/30 13:48:08;;;;;;;0.68;0.63;;;;;;;;;;5016973;28;20040;-75
2021/07/30 13:50:35;;;;;;;1.38;0.65;;;;;;;;;;5016328;28;20432;-74
2021/07/30 13:53:01;;;;;;;0.20;0.20;;;;;;;;;;5016938;28;20046;-74
2021/07/30 13:55:27;;;;;;;0.50;0.50;;;;;;;;;;5016536;28;20428;-75
2021/07/30 13:57:54;;;;;;;0.35;0.35;;;;;;;;;;5016812;28;20061;-75
2021/07/30 14:00:20;;;;;;;0.40;0.40;;;;;;;;;;5016841;28;20038;-74
2021/07/30 14:02:46;;;;;;;0.50;0.50;;;;;;;;;;5016768;28;20041;-74
2021/07/30 14:05:13;;;;;;;0.38;0.38;;;;;;;;;;5016325;28;20046;-74
2021/07/30 14:07:43;;;;;;;0.52;0.52;;;;;;;;;;5016289;28;20030;-74
2021/07/30 14:10:10;;;;;;;0.30;0.30;;;;;;;;;;5016485;28;20498;-74
2021/07/30 14:12:36;;;;;;;0.75;0.75;;;;;;;;;;5016205;28;20034;-74
2021/07/30 14:15:02;;;;;;;0.20;0.20;;;;;;;;;;5016399;28;20045;-75
2021/07/30 14:17:28;;;;;;;1.10;0.50;;;;;;;;;;5016207;28;20048;-75
2021/07/30 14:19:55;;;;;;;0.63;0.63;;;;;;;;;;5016692;28;20117;-74
2021/07/30 14:22:21;;;;;;;0.50;0.50;;;;;;;;;;5016578;28;20029;-74
2021/07/30 14:24:47;;;;;;;0.60;0.60;;;;;;;;;;5016046;28;20083;-74
2021/07/30 14:27:13;;;;;;;1.58;0.98;;;;;;;;;;5016550;28;20127;-74
2021/07/30 14:29:39;;;;;;;1.17;0.68;;;;;;;;;;5016346;28;20511;-74
2021/07/30 14:32:05;;;;;;;0.40;0.40;;;;;;;;;;5016466;28;20048;-74
2021/07/30 14:34:32;;;;;;;0.50;0.50;;;;;;;;;;5015928;28;20049;-74
2021/07/30 14:36:58;;;;;;;0.40;0.40;;;;;;;;;;5016330;28;20030;-74
2021/07/30 14:39:25;;;;;;;1.10;0.73;;;;;;;;;;5016416;28;20218;-75
2021/07/30 14:41:52;;;;;;;0.32;0.32;;;;;;;;;;5015942;28;20511;-75
2021/07/30 14:44:23;;;;;;;1.27;0.50;;;;;;;;;;5016198;28;20120;-75
2021/07/30 14:46:50;;;;;;;0.32;0.32;;;;;;;;;;5015902;28;20042;-75